createdAt,value
2023-03-26T00:02:11.578Z,0.57
2023-03-26T00:04:38.139Z,0.50
2023-03-26T00:07:04.715Z,0.50
2023-03-26T00:09:31.162Z,0.50
2023-03-26T00:11:57.685Z,0.50
2023-03-26T00:14:24.222Z,0.50
2023-03-26T00:16:50.795Z,0.50
2023-03-26T00:19:17.286Z,0.60
2023-03-26T00:21:43.809Z,0.55
2023-03-26T00:24:11.887Z,0.60
2023-03-26T00:26:38.456Z,0.80
2023-03-26T00:29:05.208Z,0.60
2023-03-26T00:31:31.776Z,0.90
2023-03-26T00:33:58.377Z,1.05
2023-03-26T00:36:25.583Z,0.60
2023-03-26T00:38:52.438Z,0.70
2023-03-26T00:41:19.911Z,1.15
2023-03-26T00:43:46.465Z,1.38
2023-03-26T00:46:12.983Z,1.10
2023-03-26T00:48:45.448Z,1.13
2023-03-26T00:51:13.651Z,1.65
2023-03-26T00:53:40.150Z,1.40
2023-03-26T00:56:07.301Z,0.90
2023-03-26T00:58:33.898Z,1.00
2023-03-26T01:01:02.256Z,0.90
2023-03-26T01:03:30.014Z,1.00
2023-03-26T01:06:20.881Z,0.80
2023-03-26T01:08:48.932Z,1.00
2023-03-26T01:11:15.402Z,0.95
2023-03-26T01:13:47.918Z,0.80
2023-03-26T01:16:34.449Z,0.80
2023-03-26T01:19:01.034Z,0.70
2023-03-26T01:21:28.400Z,0.57
2023-03-26T01:24:01.846Z,0.70
2023-03-26T01:26:43.955Z,0.40
2023-03-26T01:29:17.018Z,0.60
2023-03-26T01:31:50.258Z,0.57
2023-03-26T01:34:36.993Z,0.55
2023-03-26T01:37:15.439Z,0.60
2023-03-26T01:40:09.252Z,0.50
2023-03-26T01:42:44.677Z,0.50
2023-03-26T01:45:16.379Z,0.50
2023-03-26T01:47:42.922Z,0.50
2023-03-26T01:50:09.808Z,0.50
2023-03-26T01:52:36.444Z,0.50
2023-03-26T01:55:02.964Z,0.60
2023-03-26T01:57:52.886Z,0.55
2023-03-26T02:00:23.176Z,0.70
2023-03-26T02:02:52.806Z,0.50
2023-03-26T02:05:24.297Z,0.52
2023-03-26T02:08:05.657Z,0.50
2023-03-26T02:10:35.695Z,0.50
2023-03-26T02:13:02.169Z,0.68
2023-03-26T02:15:29.006Z,0.70
2023-03-26T02:17:55.543Z,0.60
2023-03-26T02:20:22.189Z,0.70
2023-03-26T02:22:48.706Z,0.70
2023-03-26T02:25:16.812Z,0.80
2023-03-26T02:27:43.736Z,0.80
2023-03-26T02:30:11.973Z,0.85
2023-03-26T02:32:38.523Z,1.00
2023-03-26T02:35:05.567Z,0.60
2023-03-26T02:37:32.549Z,0.60
2023-03-26T02:39:59.392Z,0.60
2023-03-26T02:42:26.133Z,0.85
2023-03-26T02:44:52.619Z,0.57
2023-03-26T02:47:19.279Z,0.65
2023-03-26T02:49:46.152Z,0.52
2023-03-26T02:52:12.690Z,0.65
2023-03-26T02:54:39.219Z,0.95
2023-03-26T02:57:05.740Z,0.80
2023-03-26T02:59:32.242Z,0.80
2023-03-26T03:01:58.761Z,0.70
2023-03-26T03:04:25.284Z,0.68
2023-03-26T03:06:51.796Z,0.80
2023-03-26T03:09:18.357Z,0.90
2023-03-26T03:11:44.989Z,0.95
2023-03-26T03:14:11.524Z,0.90
2023-03-26T03:16:38.061Z,0.93
2023-03-26T03:19:04.546Z,1.13
2023-03-26T03:21:31.370Z,0.80
2023-03-26T03:23:59.973Z,0.93
2023-03-26T03:26:27.136Z,0.90
2023-03-26T03:28:54.416Z,0.80
2023-03-26T03:31:20.928Z,0.80
2023-03-26T03:33:47.419Z,0.80
2023-03-26T03:36:21.048Z,1.13
2023-03-26T03:38:48.079Z,1.05
2023-03-26T03:41:14.674Z,1.10
2023-03-26T03:43:41.171Z,1.45
2023-03-26T03:46:07.714Z,1.50
2023-03-26T03:48:34.236Z,1.50
2023-03-26T03:51:00.710Z,1.60
2023-03-26T03:53:27.201Z,1.77
2023-03-26T03:55:54.851Z,2.15
2023-03-26T03:58:22.037Z,2.47
2023-03-26T04:00:49.694Z,2.00
2023-03-26T04:03:16.647Z,2.20
2023-03-26T04:05:43.966Z,2.13
2023-03-26T04:08:10.428Z,2.05
2023-03-26T04:10:36.929Z,1.60
2023-03-26T04:13:03.405Z,1.80
2023-03-26T04:15:30.019Z,1.80
2023-03-26T04:17:56.616Z,1.25
2023-03-26T04:20:23.131Z,1.50
2023-03-26T04:22:49.655Z,1.58
2023-03-26T04:25:16.296Z,1.48
2023-03-26T04:27:42.805Z,1.52
2023-03-26T04:30:11.672Z,1.42
2023-03-26T04:32:38.307Z,2.08
2023-03-26T04:35:05.143Z,1.98
2023-03-26T04:37:36.601Z,1.50
2023-03-26T04:40:03.811Z,1.60
2023-03-26T04:42:30.314Z,1.83
2023-03-26T04:44:56.803Z,1.63
2023-03-26T04:47:23.428Z,1.70
2023-03-26T04:49:50.092Z,1.75
2023-03-26T04:52:16.532Z,1.73
2023-03-26T04:54:44.240Z,1.90
2023-03-26T04:57:23.846Z,1.98
2023-03-26T04:59:50.443Z,2.50
2023-03-26T05:02:16.946Z,2.55
2023-03-26T05:04:43.603Z,2.20
2023-03-26T05:07:10.456Z,3.28
2023-03-26T05:09:36.932Z,2.20
2023-03-26T05:12:03.557Z,3.72
2023-03-26T05:14:30.092Z,8.55
2023-03-26T05:16:56.636Z,72.80
2023-03-26T05:19:23.135Z,79.55
2023-03-26T05:21:49.648Z,72.10
2023-03-26T05:24:16.126Z,55.22
2023-03-26T05:26:42.580Z,44.47
2023-03-26T05:29:09.223Z,30.52
2023-03-26T05:31:35.710Z,22.60
2023-03-26T05:34:02.264Z,18.75
2023-03-26T05:36:28.827Z,11.18
2023-03-26T05:38:55.333Z,6.68
2023-03-26T05:41:21.826Z,4.50
2023-03-26T05:43:48.329Z,4.80
2023-03-26T05:46:15.987Z,3.67
2023-03-26T05:48:42.573Z,4.70
2023-03-26T05:51:09.132Z,4.35
2023-03-26T05:53:35.640Z,2.55
2023-03-26T05:56:02.125Z,3.20
2023-03-26T05:58:29.473Z,2.88
2023-03-26T06:01:06.709Z,4.57
2023-03-26T06:03:33.454Z,3.70
2023-03-26T06:06:00.070Z,3.40
2023-03-26T06:08:26.622Z,2.30
2023-03-26T06:11:04.140Z,2.28
2023-03-26T06:13:30.702Z,2.83
2023-03-26T06:15:57.279Z,2.88
2023-03-26T06:18:24.608Z,2.30
2023-03-26T06:20:51.719Z,2.67
2023-03-26T06:23:18.770Z,2.47
2023-03-26T06:25:45.537Z,2.38
2023-03-26T06:28:12.566Z,1.80
2023-03-26T06:30:39.107Z,1.60
2023-03-26T06:33:05.851Z,3.40
2023-03-26T06:35:32.449Z,3.90
2023-03-26T06:37:59.215Z,2.72
2023-03-26T06:40:25.774Z,3.58
2023-03-26T06:43:08.927Z,5.05
2023-03-26T06:45:37.159Z,10.85
2023-03-26T06:48:03.900Z,4.15
2023-03-26T06:50:30.372Z,2.72
2023-03-26T06:52:56.861Z,3.35
2023-03-26T06:55:23.480Z,7.20
2023-03-26T06:57:50.830Z,3.42
2023-03-26T07:00:17.625Z,3.72
2023-03-26T07:02:44.130Z,4.70
2023-03-26T07:05:10.635Z,5.03
2023-03-26T07:07:37.154Z,4.65
2023-03-26T07:10:12.798Z,2.13
2023-03-26T07:12:39.335Z,2.42
2023-03-26T07:15:06.547Z,2.10
2023-03-26T07:17:33.034Z,2.60
2023-03-26T07:19:59.563Z,3.42
2023-03-26T07:22:26.319Z,2.60
2023-03-26T07:24:53.264Z,5.35
2023-03-26T07:27:41.501Z,5.05
2023-03-26T07:30:15.374Z,2.97
2023-03-26T07:32:53.469Z,2.40
2023-03-26T07:35:41.616Z,2.30
2023-03-26T07:38:24.176Z,3.58
2023-03-26T07:41:17.689Z,10.70
2023-03-26T07:43:56.394Z,6.47
2023-03-26T07:46:27.823Z,3.47
2023-03-26T07:48:54.528Z,4.57
2023-03-26T07:51:21.457Z,3.88
2023-03-26T07:53:48.219Z,3.10
2023-03-26T07:56:15.653Z,2.25
2023-03-26T07:59:22.452Z,2.20
2023-03-26T08:02:16.700Z,1.55
2023-03-26T08:05:04.655Z,2.58
2023-03-26T08:07:40.487Z,2.30
2023-03-26T08:13:22.936Z,2.75
2023-03-26T08:16:12.563Z,1.73
2023-03-26T08:18:41.206Z,2.60
2023-03-26T08:21:20.213Z,1.95
2023-03-26T08:24:12.784Z,2.55
2023-03-26T08:27:06.652Z,2.88
2023-03-26T08:29:41.931Z,4.22
2023-03-26T08:32:16.599Z,2.88
2023-03-26T08:34:43.097Z,3.03
2023-03-26T08:37:09.597Z,2.90
2023-03-26T08:39:40.023Z,3.95
2023-03-26T08:42:18.925Z,3.97
2023-03-26T08:45:12.529Z,2.85
2023-03-26T08:47:42.031Z,1.42
2023-03-26T08:50:29.848Z,1.15
2023-03-26T08:53:34.581Z,1.58
2023-03-26T08:56:16.307Z,2.05
2023-03-26T08:59:20.443Z,3.30
2023-03-26T09:02:16.300Z,3.47
2023-03-26T09:05:10.912Z,1.90
2023-03-26T09:07:56.194Z,2.90
2023-03-26T09:10:28.599Z,2.58
2023-03-26T09:13:19.868Z,1.42
2023-03-26T09:16:11.225Z,1.88
2023-03-26T09:18:56.555Z,4.60
2023-03-26T09:21:31.946Z,3.58
2023-03-26T09:26:48.372Z,3.65
2023-03-26T09:29:38.916Z,1.90
2023-03-26T09:32:53.068Z,1.70
2023-03-26T09:38:24.406Z,1.40
2023-03-26T09:40:59.147Z,1.60
2023-03-26T09:43:56.114Z,1.70
2023-03-26T09:46:37.775Z,1.48
2023-03-26T09:49:04.243Z,1.30
2023-03-26T09:51:56.722Z,1.40
2023-03-26T09:54:43.923Z,1.20
2023-03-26T09:57:10.432Z,1.67
2023-03-26T09:59:54.575Z,1.35
2023-03-26T10:02:46.382Z,2.22
2023-03-26T10:05:20.354Z,1.30
2023-03-26T10:08:23.532Z,1.50
2023-03-26T10:11:05.271Z,1.10
2023-03-26T10:13:43.919Z,2.03
2023-03-26T10:16:15.198Z,2.70
2023-03-26T10:19:04.531Z,2.40
2023-03-26T10:21:48.637Z,1.75
2023-03-26T10:24:36.557Z,1.92
2023-03-26T10:27:10.823Z,2.63
2023-03-26T10:30:23.907Z,3.13
2023-03-26T10:33:10.793Z,3.95
2023-03-26T10:36:02.479Z,1.95
2023-03-26T10:38:46.999Z,1.90
2023-03-26T10:41:30.256Z,1.67
2023-03-26T10:44:07.992Z,2.13
2023-03-26T10:46:44.333Z,1.98
2023-03-26T10:49:43.138Z,1.48
2023-03-26T10:52:12.122Z,1.50
2023-03-26T10:55:03.919Z,1.25
2023-03-26T10:57:42.958Z,0.98
2023-03-26T11:00:26.535Z,1.20
2023-03-26T11:03:23.983Z,2.15
2023-03-26T11:06:31.387Z,2.00
2023-03-26T11:09:25.521Z,1.23
2023-03-26T11:11:57.968Z,1.33
2023-03-26T11:14:35.589Z,1.67
2023-03-26T11:17:39.374Z,2.78
2023-03-26T11:20:20.501Z,0.82
2023-03-26T11:23:05.785Z,3.00
2023-03-26T11:26:01.834Z,0.88
2023-03-26T11:29:03.069Z,3.83
2023-03-26T11:31:48.786Z,2.13
2023-03-26T11:34:17.019Z,1.48
2023-03-26T11:36:46.365Z,3.28
2023-03-26T11:39:15.267Z,1.88
2023-03-26T11:41:41.886Z,1.00
2023-03-26T11:44:14.553Z,0.90
2023-03-26T11:46:43.997Z,1.90
2023-03-26T11:49:12.134Z,1.00
2023-03-26T11:51:39.642Z,0.93
2023-03-26T11:54:07.154Z,4.00
2023-03-26T11:57:05.266Z,1.60
2023-03-26T11:59:58.120Z,0.73
2023-03-26T12:02:31.967Z,0.80
2023-03-26T12:05:14.916Z,0.80
2023-03-26T12:08:00.969Z,1.20
2023-03-26T12:10:35.200Z,1.20
2023-03-26T12:13:02.831Z,1.88
2023-03-26T12:15:29.865Z,2.55
2023-03-26T12:17:57.283Z,6.93
2023-03-26T12:20:23.970Z,5.90
2023-03-26T12:22:53.248Z,7.47
2023-03-26T12:25:21.395Z,5.78
2023-03-26T12:28:01.541Z,2.85
2023-03-26T12:30:37.495Z,3.88
2023-03-26T12:33:08.034Z,5.68
2023-03-26T12:35:35.217Z,3.67
2023-03-26T12:38:23.252Z,2.45
2023-03-26T12:41:04.842Z,3.28
2023-03-26T12:44:51.580Z,2.85
2023-03-26T12:47:54.887Z,1.20
2023-03-26T12:49:21.341Z,1.65
2023-03-26T12:51:51.440Z,2.65
2023-03-26T12:54:55.577Z,1.58
2023-03-26T12:57:27.424Z,0.73
2023-03-26T13:00:25.510Z,0.90
2023-03-26T13:03:04.755Z,0.65
2023-03-26T13:05:40.095Z,2.25
2023-03-26T13:08:51.469Z,1.13
2023-03-26T13:11:26.726Z,0.60
2023-03-26T13:14:11.663Z,0.80
2023-03-26T13:16:50.323Z,0.70
2023-03-26T13:19:28.575Z,1.35
2023-03-26T13:22:22.832Z,1.52
2023-03-26T13:24:58.118Z,1.90
2023-03-26T13:27:30.697Z,0.55
2023-03-26T13:30:30.249Z,0.68
2023-03-26T13:33:24.815Z,0.60
2023-03-26T13:36:23.784Z,1.10
2023-03-26T13:39:20.610Z,0.40
2023-03-26T13:42:02.652Z,0.50
2023-03-26T13:45:04.417Z,0.40
2023-03-26T13:47:34.978Z,0.40
2023-03-26T13:50:21.819Z,0.70
2023-03-26T13:53:13.300Z,1.15
2023-03-26T13:55:40.837Z,1.05
2023-03-26T13:58:10.516Z,1.33
2023-03-26T14:00:55.448Z,0.75
2023-03-26T14:03:31.436Z,0.40
2023-03-26T14:06:00.359Z,0.40
2023-03-26T14:08:36.448Z,0.50
2023-03-26T14:11:07.204Z,0.80
2023-03-26T14:13:38.303Z,1.48
2023-03-26T14:16:25.064Z,0.98
2023-03-26T14:19:15.124Z,0.60
2023-03-26T14:21:55.748Z,0.50
2023-03-26T14:24:43.958Z,0.80
2023-03-26T14:27:16.292Z,1.20
2023-03-26T14:29:56.949Z,1.10
2023-03-26T14:32:29.826Z,0.77
2023-03-26T14:35:24.137Z,0.80
2023-03-26T14:37:59.894Z,0.50
2023-03-26T14:40:31.121Z,0.60
2023-03-26T14:43:04.644Z,0.70
2023-03-26T14:45:44.277Z,0.50
2023-03-26T14:48:32.579Z,0.80
2023-03-26T14:51:04.487Z,0.40
2023-03-26T14:53:33.552Z,0.50
2023-03-26T14:56:06.013Z,1.10
2023-03-26T14:58:59.819Z,0.65
2023-03-26T15:01:26.964Z,0.70
2023-03-26T15:04:05.660Z,0.80
2023-03-26T15:07:09.714Z,1.50
2023-03-26T15:10:07.793Z,1.40
2023-03-26T15:12:50.991Z,1.30
2023-03-26T15:15:42.460Z,1.20
2023-03-26T15:18:33.672Z,0.57
2023-03-26T15:21:22.703Z,0.70
2023-03-26T15:23:58.066Z,1.00
2023-03-26T15:26:46.417Z,0.73
2023-03-26T15:29:37.297Z,0.70
2023-03-26T15:32:42.784Z,0.47
2023-03-26T15:35:15.588Z,0.50
2023-03-26T15:38:03.445Z,0.60
2023-03-26T15:40:41.855Z,1.38
2023-03-26T15:43:14.576Z,0.90
2023-03-26T15:45:49.747Z,0.70
2023-03-26T15:48:22.833Z,0.65
2023-03-26T15:51:20.469Z,0.50
2023-03-26T15:53:49.793Z,0.60
2023-03-26T15:56:45.545Z,0.60
2023-03-26T15:59:20.764Z,1.30
2023-03-26T16:02:08.966Z,0.80
2023-03-26T16:04:55.127Z,0.82
2023-03-26T16:07:52.654Z,1.10
2023-03-26T16:10:40.301Z,0.88
2023-03-26T16:13:28.448Z,0.60
2023-03-26T16:16:01.606Z,0.63
2023-03-26T16:18:32.177Z,0.50
2023-03-26T16:21:31.659Z,0.70
2023-03-26T16:24:02.139Z,4.30
2023-03-26T16:26:31.485Z,0.70
2023-03-26T16:29:06.630Z,0.98
2023-03-26T16:31:36.796Z,1.27
2023-03-26T16:34:05.690Z,0.98
2023-03-26T16:36:36.258Z,1.40
2023-03-26T16:39:05.868Z,1.52
2023-03-26T16:41:38.602Z,1.35
2023-03-26T16:44:40.977Z,1.80
2023-03-26T16:47:21.969Z,2.65
2023-03-26T16:50:19.655Z,2.42
2023-03-26T16:52:49.283Z,3.78
2023-03-26T16:55:20.371Z,4.95
2023-03-26T16:58:05.341Z,4.80
2023-03-26T17:01:07.251Z,6.60
2023-03-26T17:03:42.610Z,5.22
2023-03-26T17:06:46.492Z,4.68
2023-03-26T17:09:21.298Z,6.97
2023-03-26T17:12:15.898Z,7.38
2023-03-26T17:14:45.335Z,6.47
2023-03-26T17:17:30.163Z,7.40
2023-03-26T17:20:04.215Z,7.25
2023-03-26T17:22:36.896Z,7.43
2023-03-26T17:25:12.800Z,6.45
2023-03-26T17:30:52.261Z,7.18
2023-03-26T17:33:31.893Z,5.32
2023-03-26T17:36:22.429Z,6.50
2023-03-26T17:38:48.891Z,5.32
2023-03-26T17:42:01.340Z,5.13
2023-03-26T17:44:36.018Z,4.30
2023-03-26T17:47:02.510Z,4.70
2023-03-26T17:49:30.001Z,4.93
2023-03-26T17:52:04.010Z,4.60
2023-03-26T17:54:52.383Z,4.10
2023-03-26T17:57:18.946Z,2.60
2023-03-26T17:59:45.475Z,2.38
2023-03-26T18:02:22.816Z,2.70
2023-03-26T18:04:51.216Z,3.20
2023-03-26T18:07:55.529Z,3.15
2023-03-26T18:10:56.344Z,3.10
2023-03-26T18:13:52.475Z,3.40
2023-03-26T18:16:20.507Z,5.00
2023-03-26T18:18:54.200Z,4.13
2023-03-26T18:21:39.166Z,3.47
2023-03-26T18:24:08.611Z,4.18
2023-03-26T18:26:40.943Z,4.60
2023-03-26T18:29:12.741Z,4.05
2023-03-26T18:31:42.428Z,6.32
2023-03-26T18:34:18.118Z,6.93
2023-03-26T18:37:07.667Z,32.67
2023-03-26T18:39:34.465Z,197.52
2023-03-26T18:42:01.035Z,66.65
2023-03-26T18:44:27.520Z,37.97
2023-03-26T18:46:54.037Z,43.08
2023-03-26T18:49:20.577Z,40.53
2023-03-26T18:51:56.696Z,65.32
2023-03-26T18:54:24.003Z,53.38
2023-03-26T18:56:50.586Z,25.42
2023-03-26T18:59:30.815Z,20.23
2023-03-26T19:01:58.625Z,23.58
2023-03-26T19:04:26.229Z,21.85
2023-03-26T19:06:52.807Z,15.13
2023-03-26T19:09:30.819Z,10.25
2023-03-26T19:12:07.445Z,4.55
2023-03-26T19:14:33.897Z,12.00
2023-03-26T19:17:00.621Z,11.65
2023-03-26T19:19:30.494Z,5.65
2023-03-26T19:21:59.060Z,3.60
2023-03-26T19:24:26.082Z,3.13
2023-03-26T19:26:52.642Z,3.50
2023-03-26T19:29:24.498Z,3.28
2023-03-26T19:31:51.886Z,3.22
2023-03-26T19:34:21.426Z,2.90
2023-03-26T19:36:55.960Z,3.58
2023-03-26T19:39:31.025Z,3.45
2023-03-26T19:42:04.896Z,4.85
2023-03-26T19:44:31.439Z,6.20
2023-03-26T19:47:06.524Z,5.00
2023-03-26T19:49:49.420Z,3.80
2023-03-26T19:52:26.860Z,3.00
2023-03-26T19:55:02.772Z,3.45
2023-03-26T19:59:56.370Z,2.50
2023-03-26T20:02:22.999Z,2.58
2023-03-26T20:04:49.569Z,2.83
2023-03-26T20:07:18.229Z,2.95
2023-03-26T20:09:44.801Z,2.45
2023-03-26T20:12:12.293Z,3.03
2023-03-26T20:14:38.949Z,4.05
2023-03-26T20:17:11.249Z,2.67
2023-03-26T20:19:37.721Z,4.20
2023-03-26T20:22:04.220Z,3.38
2023-03-26T20:24:30.877Z,2.97
2023-03-26T20:26:57.439Z,2.28
2023-03-26T20:29:23.938Z,2.85
2023-03-26T20:31:50.520Z,2.88
2023-03-26T20:34:20.747Z,3.63
2023-03-26T20:36:47.549Z,3.50
2023-03-26T20:39:14.064Z,3.83
2023-03-26T20:41:46.601Z,3.55
2023-03-26T20:44:14.682Z,3.00
2023-03-26T20:46:41.862Z,3.33
2023-03-26T20:49:08.606Z,3.47
2023-03-26T20:51:35.163Z,3.60
2023-03-26T20:54:01.690Z,3.50
2023-03-26T20:56:28.245Z,13.70
2023-03-26T20:59:08.225Z,17.25
2023-03-26T21:01:37.401Z,71.03
2023-03-26T21:04:03.983Z,31.70
2023-03-26T21:06:30.483Z,10.27
2023-03-26T21:08:57.320Z,6.20
2023-03-26T21:11:29.638Z,4.85
2023-03-26T21:14:01.403Z,4.50
2023-03-26T21:16:28.168Z,3.45
2023-03-26T21:18:54.970Z,3.80
2023-03-26T21:21:46.904Z,3.78
2023-03-26T21:24:17.137Z,2.30
2023-03-26T21:26:46.549Z,3.38
2023-03-26T21:29:13.299Z,2.10
2023-03-26T21:31:40.110Z,3.10
2023-03-26T21:34:06.850Z,3.30
2023-03-26T21:36:33.740Z,3.55
2023-03-26T21:39:00.535Z,2.20
2023-03-26T21:41:41.328Z,2.10
2023-03-26T21:44:07.983Z,2.30
2023-03-26T21:46:34.920Z,2.53
2023-03-26T21:49:01.825Z,2.75
2023-03-26T21:51:28.683Z,2.67
2023-03-26T21:53:55.448Z,2.53
2023-03-26T21:56:43.747Z,2.40
2023-03-26T21:59:28.600Z,2.60
2023-03-26T22:02:02.869Z,2.03
2023-03-26T22:04:47.664Z,2.60
2023-03-26T22:07:34.248Z,2.05
2023-03-26T22:10:00.712Z,2.00
2023-03-26T22:12:27.203Z,1.67
2023-03-26T22:14:53.780Z,1.70
2023-03-26T22:17:20.246Z,1.73
2023-03-26T22:19:46.734Z,1.70
2023-03-26T22:22:13.276Z,2.03
2023-03-26T22:24:39.763Z,1.90
2023-03-26T22:27:06.277Z,1.73
2023-03-26T22:29:32.805Z,1.80
2023-03-26T22:31:59.279Z,2.00
2023-03-26T22:34:25.749Z,1.83
2023-03-26T22:36:52.264Z,1.75
2023-03-26T22:39:18.757Z,1.88
2023-03-26T22:41:45.273Z,1.67
2023-03-26T22:44:19.782Z,1.48
2023-03-26T22:46:47.064Z,1.65
2023-03-26T22:49:13.588Z,1.40
2023-03-26T22:51:40.057Z,1.30
2023-03-26T22:54:06.566Z,1.20
2023-03-26T22:56:33.158Z,1.20
2023-03-26T22:58:59.693Z,0.98
2023-03-26T23:01:26.307Z,1.30
2023-03-26T23:03:53.737Z,1.25
2023-03-26T23:06:20.266Z,3.53
2023-03-26T23:08:46.790Z,2.10
2023-03-26T23:11:18.167Z,4.57
2023-03-26T23:13:45.068Z,2.75
2023-03-26T23:16:11.851Z,1.67
2023-03-26T23:18:38.591Z,2.72
2023-03-26T23:21:05.368Z,19.10
2023-03-26T23:23:38.748Z,9.95
2023-03-26T23:26:05.455Z,2.25
2023-03-26T23:28:32.324Z,1.98
2023-03-26T23:31:00.245Z,1.98
2023-03-26T23:33:28.353Z,3.40
2023-03-26T23:35:54.908Z,2.22
2023-03-26T23:38:21.447Z,2.97
2023-03-26T23:40:57.205Z,3.78
2023-03-26T23:43:24.872Z,17.70
2023-03-26T23:45:51.427Z,13.07
2023-03-26T23:48:19.468Z,5.35
2023-03-26T23:50:46.009Z,2.72
2023-03-26T23:53:12.487Z,2.53
2023-03-26T23:55:39.047Z,2.83
2023-03-26T23:58:05.601Z,2.00
